Time;durP1;ratioP1;P1;durP2;ratioP2;P2;SDS_P1;SDS_P2;PMS_P1;PMS_P2;Temp;Humidity;BMP_temperature;BMP_pressure;BME280_temperature;BME280_humidity;BME280_pressure;Samples;Min_cycle;Max_cycle;Signal;HPM_P1;HPM_P2
2024/01/19 00:01:54;;;;;;;11.80;8.38;;;;;;;-145.63;58.34;39122.03;5039663;28;20029;-64
2024/01/19 00:04:20;;;;;;;18.35;9.25;;;;;;;-145.63;58.24;38994.91;5030123;28;20044;-64
2024/01/19 00:06:46;;;;;;;11.05;8.75;;;;;;;-145.63;58.13;39141.59;5022423;28;20091;-64
2024/01/19 00:09:13;;;;;;;14.23;9.50;;;;;;;-145.63;57.71;39116.16;5022674;28;20022;-64
2024/01/19 00:11:39;;;;;;;12.10;8.77;;;;;;;-145.63;58.01;39116.16;5022830;28;20034;-64
2024/01/19 00:14:04;;;;;;;14.63;8.73;;;;;;;-145.63;57.91;39129.84;5004303;28;20034;-65
2024/01/19 00:16:30;;;;;;;12.85;9.07;;;;;;;-145.63;58.01;39122.03;5019879;28;20036;-66
2024/01/19 00:18:57;;;;;;;17.13;8.55;;;;;;;-145.63;58.06;39112.25;5022627;28;20295;-65
2024/01/19 00:21:23;;;;;;;12.77;9.02;;;;;;;-145.63;57.99;39125.94;5022482;28;20140;-65
2024/01/19 00:23:50;;;;;;;14.60;9.52;;;;;;;-145.63;57.88;39082.91;5022676;28;20036;-65
2024/01/19 00:26:15;;;;;;;20.80;9.80;;;;;;;-145.63;57.68;39110.28;5042294;28;20100;-65
2024/01/19 00:28:41;;;;;;;16.02;9.77;;;;;;;-145.63;58.20;39118.13;5027086;28;20302;-65
2024/01/19 00:31:07;;;;;;;14.57;8.93;;;;;;;-145.63;57.84;39137.69;5012047;28;20065;-65
2024/01/19 00:33:33;;;;;;;14.88;9.45;;;;;;;-145.63;58.18;39110.28;5008338;28;20338;-65
2024/01/19 00:35:58;;;;;;;14.13;9.10;;;;;;;-145.63;57.64;39120.06;5022312;28;20040;-64
2024/01/19 00:38:24;;;;;;;13.73;9.52;;;;;;;-145.63;57.86;39123.97;5028214;28;20310;-66
2024/01/19 00:40:49;;;;;;;13.13;9.38;;;;;;;-145.63;57.66;39118.13;5027629;28;20040;-65
2024/01/19 00:43:15;;;;;;;13.75;9.70;;;;;;;-145.63;57.61;39137.69;5028922;28;20072;-65
2024/01/19 00:45:41;;;;;;;14.20;9.07;;;;;;;-145.63;57.82;39131.81;5032885;28;20071;-64
2024/01/19 00:48:06;;;;;;;13.98;8.40;;;;;;;-145.63;57.76;39114.22;5011819;28;20030;-65
2024/01/19 00:50:32;;;;;;;14.73;9.30;;;;;;;-145.63;57.79;39163.09;5041408;28;20055;-65
2024/01/19 00:52:58;;;;;;;15.27;9.95;;;;;;;-145.63;57.09;39123.97;5012249;28;20216;-65
2024/01/19 00:55:23;;;;;;;16.42;9.63;;;;;;;-145.63;57.70;39096.59;5033808;28;20245;-64
2024/01/19 00:57:49;;;;;;;13.82;9.02;;;;;;;-145.63;57.44;39118.13;5027552;28;20030;-65
2024/01/19 01:00:15;;;;;;;10.95;8.57;;;;;;;-145.63;57.63;39125.94;5012055;28;20030;-64
2024/01/19 01:02:40;;;;;;;14.93;10.10;;;;;;;-145.63;56.46;39129.84;5028815;28;20018;-64
2024/01/19 01:05:06;;;;;;;13.35;9.55;;;;;;;-145.63;57.30;39102.47;5020397;28;20030;-66
2024/01/19 01:07:32;;;;;;;15.40;9.27;;;;;;;-145.63;57.28;39137.69;5026677;28;20087;-64
2024/01/19 01:09:57;;;;;;;15.50;10.18;;;;;;;-145.63;57.73;39114.22;5028755;28;20096;-65
2024/01/19 01:12:23;;;;;;;16.17;10.13;;;;;;;-145.63;57.46;39141.59;5024664;28;20038;-64
2024/01/19 01:14:48;;;;;;;14.25;9.80;;;;;;;-145.63;57.46;39118.13;5008838;28;20026;-66
2024/01/19 01:17:15;;;;;;;16.70;10.82;;;;;;;-145.63;57.15;39155.28;5027913;28;20029;-65
2024/01/19 01:19:40;;;;;;;14.95;8.88;;;;;;;-145.63;56.96;39135.72;5028702;28;20061;-65
2024/01/19 01:22:06;;;;;;;14.25;9.32;;;;;;;-145.63;57.06;39143.53;5028487;28;20072;-65
2024/01/19 01:24:32;;;;;;;14.63;9.93;;;;;;;-145.63;57.50;39108.34;5033539;28;20068;-64
2024/01/19 01:26:58;;;;;;;17.73;10.70;;;;;;;-145.63;57.51;39122.03;5048569;28;20053;-66
2024/01/19 01:29:23;;;;;;;13.13;9.73;;;;;;;-145.63;57.36;39139.63;5048078;28;20056;-65
2024/01/19 01:31:51;;;;;;;14.52;10.27;;;;;;;-145.63;57.11;39125.94;5032688;28;20192;-64
2024/01/19 01:34:16;;;;;;;16.77;10.25;;;;;;;-145.63;56.73;39112.25;5017199;28;20080;-64
2024/01/19 01:36:42;;;;;;;15.65;9.18;;;;;;;-145.63;57.02;39118.13;5021405;28;20226;-65
2024/01/19 01:39:11;;;;;;;13.90;9.95;;;;;;;-145.63;56.78;39145.50;5038698;28;20033;-65
2024/01/19 01:41:37;;;;;;;16.73;11.02;;;;;;;-145.63;56.76;38912.78;5028611;28;20026;-65
2024/01/19 01:44:04;;;;;;;16.35;10.90;;;;;;;-145.63;57.17;39153.31;5028272;28;20072;-65
2024/01/19 01:46:30;;;;;;;15.98;10.82;;;;;;;-145.63;56.83;39100.50;5016197;28;20263;-64
2024/01/19 01:48:56;;;;;;;15.63;10.10;;;;;;;-145.63;57.06;39127.91;5011318;28;20034;-63
2024/01/19 01:51:22;;;;;;;18.85;12.07;;;;;;;-145.63;57.44;39137.69;5032222;28;20062;-65
2024/01/19 01:53:48;;;;;;;14.48;10.45;;;;;;;-145.63;56.45;39149.41;5008052;28;20034;-64
2024/01/19 01:56:14;;;;;;;20.45;10.50;;;;;;;-145.63;56.95;39163.09;5006551;28;20069;-64
2024/01/19 01:58:39;;;;;;;17.77;11.02;;;;;;;-145.63;56.71;39131.81;5033562;28;20065;-64
2024/01/19 02:01:05;;;;;;;15.95;10.32;;;;;;;-145.63;57.36;39051.63;5029213;28;20089;-64
2024/01/19 02:03:32;;;;;;;14.27;10.23;;;;;;;-145.63;56.99;39170.91;5025007;28;20057;-66
2024/01/19 02:05:57;;;;;;;17.23;11.25;;;;;;;-145.63;57.07;39149.41;5025031;28;20046;-65
2024/01/19 02:08:23;;;;;;;22.15;11.82;;;;;;;-145.63;57.19;39079.00;5021286;28;20033;-65
2024/01/19 02:10:49;;;;;;;14.73;9.77;;;;;;;-145.63;57.03;39112.25;5009826;28;20030;-64
2024/01/19 02:13:16;;;;;;;18.10;11.13;;;;;;;-145.63;56.93;39133.75;5016475;28;20037;-66
2024/01/19 02:15:41;;;;;;;19.38;11.13;;;;;;;-145.63;57.06;39137.69;5034269;28;20026;-65
2024/01/19 02:18:07;;;;;;;21.05;12.68;;;;;;;-145.63;57.11;39145.50;5006216;28;20189;-65
2024/01/19 02:20:33;;;;;;;16.10;11.15;;;;;;;-145.63;56.91;39143.53;5024772;28;20033;-66
2024/01/19 02:23:02;;;;;;;18.52;10.88;;;;;;;-145.63;56.61;39167.00;5024571;28;20315;-65
2024/01/19 02:25:28;;;;;;;20.52;11.18;;;;;;;-145.63;56.82;39141.59;5012594;28;20479;-64
2024/01/19 02:27:55;;;;;;;16.30;10.80;;;;;;;-145.63;56.87;39168.97;5012415;28;20022;-65
2024/01/19 02:30:21;;;;;;;19.60;11.57;;;;;;;-145.63;56.97;39133.75;5025963;28;20079;-66
2024/01/19 02:32:47;;;;;;;17.63;11.27;;;;;;;-145.63;57.46;39123.97;5044318;28;20306;-65
2024/01/19 02:35:12;;;;;;;16.33;11.13;;;;;;;-145.63;57.13;39135.72;5025602;28;20155;-65
2024/01/19 02:37:38;;;;;;;18.23;11.55;;;;;;;-145.63;57.27;39145.50;5024511;28;20030;-64
2024/01/19 02:40:05;;;;;;;20.60;12.45;;;;;;;-145.63;57.42;39133.75;5024376;28;20247;-65
2024/01/19 02:42:31;;;;;;;16.30;10.27;;;;;;;-145.63;57.51;39153.31;5024361;28;20037;-65
2024/01/19 02:44:59;;;;;;;18.48;11.15;;;;;;;-145.63;57.35;39153.31;5024344;28;20034;-65
2024/01/19 02:47:27;;;;;;;18.20;12.05;;;;;;;-145.63;57.28;39139.63;5016260;28;20072;-64
2024/01/19 02:49:53;;;;;;;18.42;12.02;;;;;;;-145.63;57.46;39141.59;5021030;28;20076;-65
2024/01/19 02:52:19;;;;;;;18.38;12.63;;;;;;;-145.63;57.28;38695.72;5020024;28;20049;-65
2024/01/19 02:54:44;;;;;;;20.40;12.20;;;;;;;-145.63;57.29;39149.41;5017689;28;20026;-66
2024/01/19 02:57:10;;;;;;;14.85;10.60;;;;;;;-145.63;57.02;39137.69;5005479;28;20026;-65
2024/01/19 02:59:36;;;;;;;18.58;11.48;;;;;;;-145.63;57.26;39135.72;5023700;28;20214;-64
2024/01/19 03:02:02;;;;;;;20.35;11.30;;;;;;;-145.63;57.68;39149.41;5021278;28;20033;-65
2024/01/19 03:04:28;;;;;;;16.48;11.85;;;;;;;-145.63;57.20;39157.22;5023791;28;20034;-65
2024/01/19 03:06:55;;;;;;;19.85;12.57;;;;;;;-145.63;57.64;39143.53;5020496;28;20018;-65
2024/01/19 03:09:20;;;;;;;22.63;13.93;;;;;;;-145.63;57.59;39159.19;5023685;28;20116;-66
2024/01/19 03:11:46;;;;;;;23.65;12.45;;;;;;;-145.63;57.47;39168.97;5023847;28;20052;-64
2024/01/19 03:14:12;;;;;;;18.05;12.20;;;;;;;-145.63;57.22;39116.16;5006051;28;20077;-65
2024/01/19 03:16:43;;;;;;;21.50;13.50;;;;;;;-145.63;57.18;39161.13;5006537;28;20093;-65
2024/01/19 03:19:09;;;;;;;21.10;11.70;;;;;;;-145.63;57.18;39139.63;5012884;28;20097;-65
2024/01/19 03:21:35;;;;;;;17.42;11.55;;;;;;;-145.63;57.34;39157.22;5027793;28;20206;-65
2024/01/19 03:24:01;;;;;;;22.10;12.90;;;;;;;-145.63;56.90;39153.31;5024270;28;20088;-65
2024/01/19 03:26:28;;;;;;;22.95;13.38;;;;;;;-145.63;57.51;39168.97;5024595;28;20030;-64
2024/01/19 03:28:53;;;;;;;19.75;12.07;;;;;;;-145.63;57.42;39125.94;5007140;28;20030;-64
2024/01/19 03:31:19;;;;;;;19.08;11.40;;;;;;;-145.63;57.74;39161.13;5014000;28;20046;-66
2024/01/19 03:33:45;;;;;;;18.45;12.32;;;;;;;-145.63;57.35;39080.97;5017556;28;20034;-65
2024/01/19 03:36:10;;;;;;;18.50;12.15;;;;;;;-145.63;57.37;39165.06;5004287;28;20034;-65
2024/01/19 03:38:36;;;;;;;18.30;11.43;;;;;;;-145.63;57.68;39161.13;5023322;28;20076;-65
2024/01/19 03:41:02;;;;;;;16.80;11.75;;;;;;;-145.63;57.30;39155.28;5022781;28;20030;-65
2024/01/19 03:43:27;;;;;;;18.55;12.15;;;;;;;-145.63;57.26;39149.41;5023186;28;20025;-65
2024/01/19 03:45:53;;;;;;;18.98;11.77;;;;;;;-145.63;57.31;39219.81;5016673;28;20022;-65
2024/01/19 03:48:19;;;;;;;15.30;10.73;;;;;;;-145.63;57.38;39155.28;5044378;28;20037;-66
2024/01/19 03:50:44;;;;;;;19.40;13.10;;;;;;;-145.63;57.20;39139.63;5037962;28;20326;-65
2024/01/19 03:53:10;;;;;;;48.08;23.17;;;;;;;-145.63;57.18;39149.41;5006132;28;20026;-65
2024/01/19 03:55:36;;;;;;;36.10;19.65;;;;;;;-145.63;56.79;39155.28;5014245;28;20219;-66
2024/01/19 03:58:02;;;;;;;14.82;11.18;;;;;;;-145.63;56.99;39168.97;5009445;28;20109;-65
2024/01/19 04:00:28;;;;;;;16.48;12.23;;;;;;;-145.63;56.60;39190.47;5016026;28;20032;-66
2024/01/19 04:02:53;;;;;;;15.07;11.15;;;;;;;-145.63;56.88;39153.31;5022490;28;20030;-65
2024/01/19 04:05:20;;;;;;;14.93;10.60;;;;;;;-145.63;57.03;39190.47;5028683;28;20030;-65
2024/01/19 04:07:46;;;;;;;17.70;11.88;;;;;;;-145.63;57.35;39151.38;5029731;28;20036;-64
2024/01/19 04:10:12;;;;;;;17.38;11.50;;;;;;;-145.63;57.24;39153.31;5032961;28;20112;-65
2024/01/19 04:12:38;;;;;;;18.15;12.48;;;;;;;-145.63;56.41;39149.41;5022125;28;20026;-65
2024/01/19 04:15:04;;;;;;;16.60;11.95;;;;;;;-145.63;57.18;39192.44;5024128;28;20159;-66
2024/01/19 04:17:30;;;;;;;18.23;10.80;;;;;;;-145.63;56.61;39147.44;5041917;28;20037;-65
2024/01/19 04:19:57;;;;;;;16.40;11.07;;;;;;;-145.63;56.88;39161.13;5027752;28;20025;-64
2024/01/19 04:22:22;;;;;;;17.48;11.38;;;;;;;-145.63;56.55;39178.75;5022340;28;20064;-66
2024/01/19 04:24:48;;;;;;;19.65;12.32;;;;;;;-145.63;56.67;39153.31;5016961;28;20034;-66
2024/01/19 04:27:14;;;;;;;17.27;11.68;;;;;;;-145.63;56.97;39168.97;5003656;28;20030;-65
2024/01/19 04:29:39;;;;;;;19.05;11.88;;;;;;;-145.63;57.06;39151.38;5021403;28;20065;-65
2024/01/19 04:32:05;;;;;;;16.45;11.40;;;;;;;-145.63;56.71;39184.59;5006221;28;20061;-65
2024/01/19 04:34:31;;;;;;;16.30;11.05;;;;;;;-145.63;56.57;39200.25;5014116;28;20032;-65
2024/01/19 04:36:56;;;;;;;17.90;11.98;;;;;;;-145.63;56.72;39186.56;5015652;28;20210;-66
2024/01/19 04:39:22;;;;;;;18.80;11.35;;;;;;;-145.63;56.66;39168.97;5013883;28;20190;-66
2024/01/19 04:41:48;;;;;;;17.70;11.93;;;;;;;-145.63;56.52;39167.00;5022160;28;20029;-65
2024/01/19 04:44:14;;;;;;;17.85;11.65;;;;;;;-145.63;56.56;39149.41;5022171;28;20037;-64
2024/01/19 04:46:39;;;;;;;17.48;11.85;;;;;;;-145.63;56.46;39153.31;5016439;28;20033;-64
2024/01/19 04:49:05;;;;;;;19.75;11.70;;;;;;;-145.63;56.26;39149.41;5009968;28;20046;-65
2024/01/19 04:51:31;;;;;;;15.98;11.48;;;;;;;-145.63;55.99;39159.19;5038713;28;20305;-64
2024/01/19 04:53:58;;;;;;;17.10;11.85;;;;;;;-145.63;55.78;39170.91;5018979;28;20030;-64
2024/01/19 04:56:24;;;;;;;18.25;12.50;;;;;;;-145.63;56.30;39172.88;5004467;28;20093;-65
2024/01/19 04:58:49;;;;;;;15.98;11.13;;;;;;;-145.63;56.16;39157.22;5016020;28;20207;-64
2024/01/19 05:01:15;;;;;;;19.52;13.30;;;;;;;-145.63;56.22;39168.97;5021271;28;20053;-65
2024/01/19 05:03:41;;;;;;;19.75;13.55;;;;;;;-145.63;56.07;39188.53;5022465;28;20037;-64
2024/01/19 05:06:07;;;;;;;18.95;14.00;;;;;;;-145.63;55.96;39157.22;5021811;28;20034;-65
2024/01/19 05:08:32;;;;;;;22.77;15.13;;;;;;;-145.63;56.07;39159.19;5019784;28;20060;-64
2024/01/19 05:10:58;;;;;;;24.13;14.75;;;;;;;-145.63;55.98;39153.31;5021716;28;20026;-65
2024/01/19 05:13:23;;;;;;;22.45;14.55;;;;;;;-145.63;56.01;39137.69;5016718;28;20040;-64
2024/01/19 05:15:49;;;;;;;21.77;14.85;;;;;;;-145.63;55.90;39168.97;5020981;28;20026;-64
2024/01/19 05:18:15;;;;;;;22.85;15.60;;;;;;;-145.63;55.90;39174.84;5012486;28;20106;-64
2024/01/19 05:20:40;;;;;;;20.70;14.25;;;;;;;-145.63;56.10;39170.91;5011471;28;20030;-65
2024/01/19 05:23:06;;;;;;;23.00;15.38;;;;;;;-145.63;55.82;39161.13;5007807;28;20346;-64
2024/01/19 05:25:32;;;;;;;22.90;16.02;;;;;;;-145.63;55.65;39196.34;5016657;28;20033;-64
2024/01/19 05:27:58;;;;;;;23.27;14.88;;;;;;;-145.63;55.80;39180.69;5032393;28;20037;-63
2024/01/19 05:30:23;;;;;;;22.65;15.15;;;;;;;-145.63;55.71;39137.69;5043396;28;20581;-64
2024/01/19 05:32:49;;;;;;;24.63;15.75;;;;;;;-145.63;55.55;39170.91;5025467;28;20021;-64
2024/01/19 05:35:15;;;;;;;18.98;14.05;;;;;;;-145.63;55.67;39151.38;5008684;28;20100;-65
2024/01/19 05:37:41;;;;;;;19.75;13.18;;;;;;;-145.63;55.73;39157.22;5030168;28;20076;-64
2024/01/19 05:40:07;;;;;;;22.13;14.32;;;;;;;-145.63;55.56;39145.50;5027485;28;20021;-64
2024/01/19 05:42:34;;;;;;;25.38;14.30;;;;;;;-145.63;55.59;39241.31;5025171;28;20093;-63
2024/01/19 05:45:00;;;;;;;23.73;14.68;;;;;;;-145.63;55.72;39135.72;5025361;28;20230;-64
2024/01/19 05:47:26;;;;;;;19.42;14.07;;;;;;;-145.63;55.93;39141.59;5007001;28;20023;-65
2024/01/19 05:49:51;;;;;;;21.80;15.15;;;;;;;-145.63;56.10;39167.00;5026859;28;20033;-64
2024/01/19 05:52:18;;;;;;;19.38;12.70;;;;;;;-145.63;55.97;39184.59;5035955;28;20045;-63
2024/01/19 05:54:44;;;;;;;18.67;13.15;;;;;;;-145.63;55.44;39147.44;5020704;28;20142;-64
2024/01/19 05:57:10;;;;;;;18.95;12.98;;;;;;;-145.63;56.16;39167.00;5005447;28;20034;-64
2024/01/19 05:59:38;;;;;;;18.52;12.50;;;;;;;-145.63;55.70;39163.09;5024613;28;20022;-63
2024/01/19 06:02:07;;;;;;;18.95;12.80;;;;;;;-145.63;55.22;39168.97;5024887;28;20056;-65
2024/01/19 06:04:36;;;;;;;17.33;12.77;;;;;;;-145.63;55.17;39184.59;5024681;28;20097;-64
2024/01/19 06:07:03;;;;;;;17.63;13.30;;;;;;;-145.63;55.37;39137.69;5025939;28;20037;-64
2024/01/19 06:09:29;;;;;;;17.15;12.88;;;;;;;-145.63;55.59;39165.06;5024809;28;20068;-64
2024/01/19 06:11:54;;;;;;;20.00;13.60;;;;;;;-145.63;55.45;39200.25;5024853;28;20121;-64
2024/01/19 06:14:20;;;;;;;17.80;13.07;;;;;;;-145.63;55.78;39200.25;5007425;28;20033;-64
2024/01/19 06:16:45;;;;;;;18.67;12.90;;;;;;;-145.63;55.76;39176.78;5029997;28;20324;-63
2024/01/19 06:19:11;;;;;;;19.02;13.30;;;;;;;-145.63;55.61;39141.59;5036863;28;20324;-65
2024/01/19 06:21:37;;;;;;;18.38;13.27;;;;;;;-145.63;56.13;39172.88;5024569;28;20041;-63
2024/01/19 06:24:02;;;;;;;18.15;12.65;;;;;;;-145.63;55.87;39153.31;5024577;28;20075;-64
2024/01/19 06:26:32;;;;;;;21.05;12.88;;;;;;;-145.63;56.10;39127.91;5006352;28;20026;-65
2024/01/19 06:28:58;;;;;;;21.63;13.63;;;;;;;-145.63;56.13;39122.03;5018734;28;20029;-65
2024/01/19 06:31:24;;;;;;;22.10;13.60;;;;;;;-145.63;55.88;39135.72;5015123;28;20034;-64
2024/01/19 06:33:50;;;;;;;15.55;12.20;;;;;;;-145.63;55.54;39100.50;5009671;28;20033;-63
2024/01/19 06:36:15;;;;;;;17.40;12.30;;;;;;;-145.63;55.50;39116.16;5022866;28;20034;-64
2024/01/19 06:38:41;;;;;;;17.30;11.68;;;;;;;-145.63;55.34;39123.97;5010531;28;20025;-65
2024/01/19 06:41:07;;;;;;;17.73;13.13;;;;;;;-145.63;55.65;39106.38;5024186;28;20332;-64
2024/01/19 06:43:33;;;;;;;17.60;13.35;;;;;;;-145.63;55.32;39114.22;5024112;28;20064;-64
2024/01/19 06:45:59;;;;;;;17.75;12.27;;;;;;;-145.63;55.15;39127.91;5023876;28;20030;-64
2024/01/19 06:48:25;;;;;;;15.85;11.30;;;;;;;-145.63;54.65;39104.44;5022959;28;20275;-64
2024/01/19 06:50:50;;;;;;;18.52;12.05;;;;;;;-145.63;55.21;39122.03;5036099;28;20032;-64
2024/01/19 06:53:16;;;;;;;16.90;11.68;;;;;;;-145.63;55.51;39135.72;5027208;28;20025;-65
2024/01/19 06:55:41;;;;;;;18.23;12.88;;;;;;;-145.63;55.32;39157.22;5012333;28;20027;-64
2024/01/19 06:58:08;;;;;;;16.27;10.80;;;;;;;-145.63;55.13;39116.16;5011071;28;20038;-65
2024/01/19 07:00:33;;;;;;;13.80;10.20;;;;;;;-145.63;55.01;39125.94;5023733;28;20038;-64
2024/01/19 07:02:59;;;;;;;14.38;10.50;;;;;;;-145.63;54.84;39129.84;5023288;28;20033;-64
2024/01/19 07:05:25;;;;;;;13.70;10.32;;;;;;;-145.63;54.40;39102.47;5006357;28;20030;-63
2024/01/19 07:07:51;;;;;;;14.63;10.20;;;;;;;-145.63;54.99;39104.44;5016781;28;20471;-64
2024/01/19 07:10:18;;;;;;;18.17;10.30;;;;;;;-145.63;54.88;39147.44;5023488;28;20038;-64
2024/01/19 07:12:45;;;;;;;14.88;10.52;;;;;;;-145.63;54.21;39116.16;5019816;28;20094;-65
2024/01/19 07:15:10;;;;;;;18.42;10.65;;;;;;;-145.63;54.60;39106.38;5003625;28;20037;-64
2024/01/19 07:17:36;;;;;;;15.50;9.88;;;;;;;-145.63;54.55;39127.91;5021332;28;20303;-65
2024/01/19 07:20:05;;;;;;;14.77;9.55;;;;;;;-145.63;54.51;39127.91;5023332;28;20056;-65
2024/01/19 07:22:33;;;;;;;17.08;9.40;;;;;;;-145.63;53.98;39118.13;5022307;28;20055;-65
2024/01/19 07:24:59;;;;;;;11.18;9.13;;;;;;;-145.63;54.09;39002.72;5017871;28;20042;-64
2024/01/19 07:27:24;;;;;;;13.30;8.70;;;;;;;-145.63;53.97;39086.81;5004469;28;20025;-64
2024/01/19 07:29:50;;;;;;;14.02;8.80;;;;;;;-145.63;53.91;39088.78;5023132;28;20033;-64
2024/01/19 07:32:19;;;;;;;10.13;8.55;;;;;;;-145.63;53.98;39114.22;5007420;28;20030;-63
2024/01/19 07:34:44;;;;;;;11.77;8.50;;;;;;;-145.63;54.36;39098.56;5015132;28;20310;-65
2024/01/19 07:37:10;;;;;;;13.13;8.43;;;;;;;-145.63;53.59;39104.44;5022496;28;20067;-65
2024/01/19 07:39:36;;;;;;;11.02;8.23;;;;;;;-145.63;53.69;39131.81;5037126;28;20036;-63
2024/01/19 07:42:01;;;;;;;11.75;8.50;;;;;;;-145.63;53.43;39165.06;5035987;28;20037;-66
2024/01/19 07:44:27;;;;;;;13.63;9.05;;;;;;;-145.63;53.83;39080.97;5034568;28;20034;-64
2024/01/19 07:46:53;;;;;;;12.02;8.75;;;;;;;-145.63;53.36;39116.16;5022448;28;20307;-65
2024/01/19 07:49:21;;;;;;;11.05;8.35;;;;;;;-145.63;53.06;39110.28;5010413;28;20022;-64
2024/01/19 07:51:50;;;;;;;16.65;8.48;;;;;;;-145.63;53.47;39118.13;5027687;28;20029;-64
2024/01/19 07:54:19;;;;;;;13.13;8.98;;;;;;;-145.63;52.75;39118.13;5033585;28;20035;-65
2024/01/19 07:56:44;;;;;;;12.25;8.43;;;;;;;-145.63;52.70;39129.84;5036395;28;20045;-64
2024/01/19 07:59:10;;;;;;;12.32;8.73;;;;;;;-145.63;53.08;39108.34;5022601;28;20026;-64
2024/01/19 08:01:36;;;;;;;10.60;7.55;;;;;;;-145.63;53.44;39114.22;5015689;28;20025;-64
2024/01/19 08:04:01;;;;;;;11.25;8.20;;;;;;;-145.63;53.29;39120.06;5021662;28;20097;-64
2024/01/19 08:06:27;;;;;;;13.85;8.75;;;;;;;-145.63;53.21;39120.06;5010784;28;20031;-64
2024/01/19 08:08:53;;;;;;;12.10;8.75;;;;;;;-145.63;53.00;39102.47;5022635;28;20042;-64
2024/01/19 08:11:18;;;;;;;10.55;8.32;;;;;;;-145.63;52.89;39133.75;5025012;28;20021;-65
2024/01/19 08:13:44;;;;;;;13.38;9.27;;;;;;;-145.63;53.17;39112.25;5042144;28;20037;-65
2024/01/19 08:16:10;;;;;;;13.80;9.35;;;;;;;-145.63;53.29;39120.06;5008771;28;20035;-65
2024/01/19 08:18:35;;;;;;;12.13;8.75;;;;;;;-145.63;53.08;39090.75;5016231;28;20030;-64
2024/01/19 08:21:01;;;;;;;14.00;9.20;;;;;;;-145.63;52.86;39122.03;5020147;28;20041;-65
2024/01/19 08:23:27;;;;;;;15.18;9.85;;;;;;;-145.63;53.13;39071.19;5026473;28;20030;-65
2024/01/19 08:25:53;;;;;;;13.68;9.43;;;;;;;-145.63;53.39;39094.66;5036736;28;20030;-65
2024/01/19 08:28:19;;;;;;;14.68;10.65;;;;;;;-145.63;52.58;39118.13;5015130;28;20204;-63
2024/01/19 08:30:44;;;;;;;15.90;10.32;;;;;;;-145.63;52.86;39139.63;5016741;28;20092;-66
2024/01/19 08:33:10;;;;;;;14.77;10.07;;;;;;;-145.63;53.15;39120.06;5022107;28;20042;-64
2024/01/19 08:35:35;;;;;;;15.50;9.80;;;;;;;-145.63;53.36;39104.44;5020047;28;20030;-65
2024/01/19 08:38:01;;;;;;;16.75;10.68;;;;;;;-145.63;52.65;39112.25;5021876;28;20025;-64
2024/01/19 08:40:27;;;;;;;14.40;10.35;;;;;;;-145.63;52.48;39094.66;5004814;28;20030;-64
2024/01/19 08:42:53;;;;;;;15.25;10.40;;;;;;;-145.63;52.86;39118.13;5022385;28;20073;-64
2024/01/19 08:45:18;;;;;;;17.55;11.15;;;;;;;-145.63;52.18;39125.94;5011553;28;20215;-64
2024/01/19 08:47:44;;;;;;;15.27;10.45;;;;;;;-145.63;51.94;39102.47;5008689;28;20093;-64
2024/01/19 08:50:09;;;;;;;12.35;9.40;;;;;;;-145.63;52.24;39112.25;5031199;28;20029;-64
2024/01/19 08:52:35;;;;;;;13.93;10.60;;;;;;;-145.63;51.93;39125.94;5022376;28;20026;-64
2024/01/19 08:55:01;;;;;;;16.38;10.35;;;;;;;-145.63;52.00;39147.44;5038324;28;20100;-65
2024/01/19 08:57:31;;;;;;;16.27;10.70;;;;;;;-145.63;51.76;39159.19;5030343;28;20065;-65
2024/01/19 08:59:57;;;;;;;15.70;10.40;;;;;;;-145.63;51.51;39102.47;5018657;28;20050;-65
2024/01/19 09:02:23;;;;;;;13.25;9.88;;;;;;;-145.63;51.46;39129.84;5020556;28;20064;-64
2024/01/19 09:04:49;;;;;;;14.00;10.10;;;;;;;-145.63;51.06;39151.38;5006529;28;20037;-64
2024/01/19 09:07:14;;;;;;;13.13;9.82;;;;;;;-145.63;50.98;39116.16;5024189;28;20055;-65
2024/01/19 09:09:40;;;;;;;16.50;10.85;;;;;;;-145.63;51.39;39143.53;5018594;28;20034;-64
2024/01/19 09:12:07;;;;;;;15.93;9.60;;;;;;;-145.63;51.23;39127.91;5023424;28;20033;-64
2024/01/19 09:14:32;;;;;;;14.68;9.88;;;;;;;-145.63;50.99;39125.94;5041492;28;20026;-64
2024/01/19 09:16:58;;;;;;;14.35;10.50;;;;;;;-145.63;51.37;39114.22;5025795;28;20026;-64
2024/01/19 09:19:24;;;;;;;13.85;9.20;;;;;;;-145.63;50.81;39108.34;5025689;28;20021;-65
2024/01/19 09:21:50;;;;;;;15.85;9.65;;;;;;;-145.63;51.58;39108.34;5024342;28;20030;-62
2024/01/19 09:24:17;;;;;;;14.68;10.25;;;;;;;-145.63;51.26;39114.22;5025689;28;20038;-64
2024/01/19 09:26:43;;;;;;;13.70;9.48;;;;;;;-145.63;50.78;39118.13;5020301;28;20025;-64
2024/01/19 09:29:10;;;;;;;14.60;9.63;;;;;;;-145.63;50.92;39120.06;5006516;28;20042;-64
2024/01/19 09:31:48;;;;;;;18.08;10.75;;;;;;;-145.63;50.97;39120.06;5025821;28;20026;-63
2024/01/19 09:34:14;;;;;;;17.52;10.70;;;;;;;-145.63;50.74;39129.84;5022758;28;20311;-66
2024/01/19 09:36:41;;;;;;;17.17;10.65;;;;;;;-145.63;50.89;39055.53;5019037;28;20033;-65
2024/01/19 09:39:07;;;;;;;16.08;9.88;;;;;;;-145.63;50.24;39139.63;5025345;28;20030;-64
2024/01/19 09:41:36;;;;;;;16.10;10.23;;;;;;;-145.63;50.51;39143.53;5025303;28;20314;-64
2024/01/19 09:44:07;;;;;;;15.85;9.82;;;;;;;-145.63;50.95;39129.84;5025679;28;20022;-65
2024/01/19 09:46:50;;;;;;;13.77;9.53;;;;;;;-145.63;50.48;38326.16;5004553;28;20322;-65
2024/01/19 09:49:28;;;;;;;14.70;9.23;;;;;;;-145.63;49.96;39110.28;5026442;28;20182;-65
2024/01/19 09:52:14;;;;;;;14.50;9.30;;;;;;;-145.63;50.40;39137.69;5030185;28;20026;-64
2024/01/19 09:54:40;;;;;;;12.93;9.20;;;;;;;-145.63;50.19;39151.38;5012337;28;20072;-65
2024/01/19 09:57:06;;;;;;;13.82;9.15;;;;;;;-145.63;49.87;39122.03;5013658;28;20068;-65
2024/01/19 09:59:33;;;;;;;14.70;9.52;;;;;;;-145.63;49.78;39200.25;5021632;28;20333;-64
2024/01/19 10:02:00;;;;;;;14.40;8.85;;;;;;;-145.63;50.42;39143.53;5018524;28;20022;-65
2024/01/19 10:04:26;;;;;;;11.23;8.73;;;;;;;-145.63;49.97;39133.75;5010494;28;20038;-65
2024/01/19 10:06:53;;;;;;;12.63;8.38;;;;;;;-145.63;49.93;39114.22;5024215;28;20041;-65
2024/01/19 10:09:19;;;;;;;13.65;8.90;;;;;;;-145.63;50.04;39135.72;5027325;28;20049;-65
2024/01/19 10:11:53;;;;;;;13.70;8.65;;;;;;;-145.63;49.88;39133.75;5038233;28;20294;-65
2024/01/19 10:14:19;;;;;;;12.52;7.88;;;;;;;-145.63;49.24;39141.59;5020004;28;20090;-65
2024/01/19 10:16:48;;;;;;;12.52;7.85;;;;;;;-145.63;48.77;39123.97;5014215;28;20037;-66
2024/01/19 10:19:14;;;;;;;11.27;8.05;;;;;;;-145.63;49.30;39118.13;5027287;28;20044;-65
2024/01/19 10:21:40;;;;;;;14.07;8.52;;;;;;;-145.63;48.94;39125.94;5032308;28;20048;-64
2024/01/19 10:24:19;;;;;;;12.40;8.20;;;;;;;-145.63;49.16;39110.28;5031837;28;20048;-64
2024/01/19 10:26:53;;;;;;;13.88;8.68;;;;;;;-145.63;49.21;39147.44;5033012;28;20021;-64
2024/01/19 10:29:19;;;;;;;12.77;8.25;;;;;;;-145.63;48.59;39139.63;5032846;28;20030;-65
2024/01/19 10:31:49;;;;;;;11.55;8.00;;;;;;;-145.63;48.76;39131.81;5035988;28;20306;-65
2024/01/19 10:34:22;;;;;;;11.57;8.10;;;;;;;-145.63;48.67;39145.50;5029468;28;20026;-66
2024/01/19 10:36:49;;;;;;;11.00;8.55;;;;;;;-145.63;49.07;39139.63;5016354;28;20159;-65
2024/01/19 10:39:26;;;;;;;11.57;8.23;;;;;;;-145.63;48.25;39135.72;5020116;28;20030;-65
2024/01/19 10:42:06;;;;;;;13.60;8.82;;;;;;;-145.63;49.20;39168.97;5024373;28;20032;-66
2024/01/19 10:44:33;;;;;;;11.70;8.25;;;;;;;-145.63;48.85;39127.91;5022347;28;20030;-64
2024/01/19 10:46:59;;;;;;;10.60;7.80;;;;;;;-145.63;48.32;39135.72;5028858;28;20037;-65
2024/01/19 10:49:25;;;;;;;10.35;7.25;;;;;;;-145.63;48.12;39125.94;5030253;28;20026;-64
2024/01/19 10:51:51;;;;;;;11.38;8.20;;;;;;;-145.63;48.83;39165.06;5032926;28;20479;-64
2024/01/19 10:54:24;;;;;;;12.48;7.97;;;;;;;-145.63;48.81;39137.69;5032844;28;20025;-64
2024/01/19 10:57:02;;;;;;;14.07;8.13;;;;;;;-145.63;48.49;38865.84;5032237;28;20099;-65
2024/01/19 10:59:28;;;;;;;10.95;8.05;;;;;;;-145.63;48.95;39123.97;5032450;28;20036;-65
2024/01/19 11:02:02;;;;;;;11.02;7.72;;;;;;;-145.63;47.60;39139.63;5033269;28;20029;-63